sensor_id;sensor_type;location;lat;lon;timestamp;P1;durP1;ratioP1;P2;durP2;ratioP2
3257;SDS011;1641;51.306;12.384;2022-11-30T00:00:27;24.58;;;13.95;;
3257;SDS011;1641;51.306;12.384;2022-11-30T00:02:52;19.80;;;12.98;;
3257;SDS011;1641;51.306;12.384;2022-11-30T00:05:18;21.40;;;13.45;;
3257;SDS011;1641;51.306;12.384;2022-11-30T00:07:45;23.52;;;14.40;;
3257;SDS011;1641;51.306;12.384;2022-11-30T00:10:10;21.35;;;13.70;;
3257;SDS011;1641;51.306;12.384;2022-11-30T00:12:36;23.58;;;13.85;;
3257;SDS011;1641;51.306;12.384;2022-11-30T00:15:01;22.17;;;13.38;;
3257;SDS011;1641;51.306;12.384;2022-11-30T00:17:26;19.80;;;13.77;;
3257;SDS011;1641;51.306;12.384;2022-11-30T00:19:52;25.90;;;14.18;;
3257;SDS011;1641;51.306;12.384;2022-11-30T00:22:23;20.95;;;13.05;;
3257;SDS011;1641;51.306;12.384;2022-11-30T00:24:48;24.60;;;14.77;;
3257;SDS011;1641;51.306;12.384;2022-11-30T00:27:13;22.52;;;13.27;;
3257;SDS011;1641;51.306;12.384;2022-11-30T00:29:38;22.73;;;13.57;;
3257;SDS011;1641;51.306;12.384;2022-11-30T00:32:04;20.33;;;13.70;;
3257;SDS011;1641;51.306;12.384;2022-11-30T00:34:29;23.25;;;14.13;;
3257;SDS011;1641;51.306;12.384;2022-11-30T00:36:54;22.90;;;13.40;;
3257;SDS011;1641;51.306;12.384;2022-11-30T00:39:20;20.90;;;13.60;;
3257;SDS011;1641;51.306;12.384;2022-11-30T00:41:45;23.05;;;13.48;;
3257;SDS011;1641;51.306;12.384;2022-11-30T00:44:10;23.35;;;13.77;;
3257;SDS011;1641;51.306;12.384;2022-11-30T00:46:36;18.88;;;13.40;;
3257;SDS011;1641;51.306;12.384;2022-11-30T00:49:01;21.38;;;13.38;;
3257;SDS011;1641;51.306;12.384;2022-11-30T00:51:26;24.67;;;14.00;;
3257;SDS011;1641;51.306;12.384;2022-11-30T00:53:51;21.08;;;13.27;;
3257;SDS011;1641;51.306;12.384;2022-11-30T00:56:20;19.35;;;13.20;;
3257;SDS011;1641;51.306;12.384;2022-11-30T00:58:45;21.20;;;13.07;;
3257;SDS011;1641;51.306;12.384;2022-11-30T01:01:10;23.85;;;13.55;;
3257;SDS011;1641;51.306;12.384;2022-11-30T01:03:36;21.80;;;14.48;;
3257;SDS011;1641;51.306;12.384;2022-11-30T01:06:05;21.77;;;14.48;;
3257;SDS011;1641;51.306;12.384;2022-11-30T01:08:34;19.88;;;13.30;;
3257;SDS011;1641;51.306;12.384;2022-11-30T01:11:17;23.40;;;14.05;;
3257;SDS011;1641;51.306;12.384;2022-11-30T01:13:45;20.17;;;13.35;;
3257;SDS011;1641;51.306;12.384;2022-11-30T01:16:12;24.02;;;13.88;;
3257;SDS011;1641;51.306;12.384;2022-11-30T01:18:40;25.88;;;14.23;;
3257;SDS011;1641;51.306;12.384;2022-11-30T01:21:13;21.17;;;13.52;;
3257;SDS011;1641;51.306;12.384;2022-11-30T01:23:40;24.42;;;13.38;;
3257;SDS011;1641;51.306;12.384;2022-11-30T01:26:06;22.25;;;14.75;;
3257;SDS011;1641;51.306;12.384;2022-11-30T01:28:32;20.88;;;13.23;;
3257;SDS011;1641;51.306;12.384;2022-11-30T01:31:01;22.02;;;13.43;;
3257;SDS011;1641;51.306;12.384;2022-11-30T01:33:38;19.10;;;11.17;;
3257;SDS011;1641;51.306;12.384;2022-11-30T01:36:15;23.17;;;12.70;;
3257;SDS011;1641;51.306;12.384;2022-11-30T01:38:44;23.00;;;14.00;;
3257;SDS011;1641;51.306;12.384;2022-11-30T01:41:13;23.60;;;13.10;;
3257;SDS011;1641;51.306;12.384;2022-11-30T01:43:41;25.60;;;14.27;;
3257;SDS011;1641;51.306;12.384;2022-11-30T01:46:22;21.67;;;14.10;;
3257;SDS011;1641;51.306;12.384;2022-11-30T01:49:03;25.33;;;14.43;;
3257;SDS011;1641;51.306;12.384;2022-11-30T01:51:36;27.25;;;13.23;;
3257;SDS011;1641;51.306;12.384;2022-11-30T01:54:11;24.27;;;13.57;;
3257;SDS011;1641;51.306;12.384;2022-11-30T01:56:41;21.52;;;12.57;;
3257;SDS011;1641;51.306;12.384;2022-11-30T01:59:10;20.30;;;13.38;;
3257;SDS011;1641;51.306;12.384;2022-11-30T02:01:36;21.83;;;15.20;;
3257;SDS011;1641;51.306;12.384;2022-11-30T02:04:02;24.63;;;14.43;;
3257;SDS011;1641;51.306;12.384;2022-11-30T02:06:33;23.00;;;14.43;;
3257;SDS011;1641;51.306;12.384;2022-11-30T02:08:59;23.75;;;14.43;;
3257;SDS011;1641;51.306;12.384;2022-11-30T02:11:25;24.98;;;14.15;;
3257;SDS011;1641;51.306;12.384;2022-11-30T02:13:57;23.85;;;13.65;;
3257;SDS011;1641;51.306;12.384;2022-11-30T02:16:44;21.73;;;14.00;;
3257;SDS011;1641;51.306;12.384;2022-11-30T02:27:12;24.70;;;14.38;;
3257;SDS011;1641;51.306;12.384;2022-11-30T02:32:24;23.55;;;14.50;;
3257;SDS011;1641;51.306;12.384;2022-11-30T02:34:53;22.65;;;13.98;;
3257;SDS011;1641;51.306;12.384;2022-11-30T02:37:20;21.23;;;13.35;;
3257;SDS011;1641;51.306;12.384;2022-11-30T02:39:48;22.40;;;14.32;;
3257;SDS011;1641;51.306;12.384;2022-11-30T02:42:14;23.35;;;14.10;;
3257;SDS011;1641;51.306;12.384;2022-11-30T02:44:40;30.58;;;15.93;;
3257;SDS011;1641;51.306;12.384;2022-11-30T02:52:38;25.15;;;14.43;;
3257;SDS011;1641;51.306;12.384;2022-11-30T02:55:05;24.23;;;14.07;;
3257;SDS011;1641;51.306;12.384;2022-11-30T02:57:34;27.70;;;14.75;;
3257;SDS011;1641;51.306;12.384;2022-11-30T02:59:59;21.63;;;13.82;;
3257;SDS011;1641;51.306;12.384;2022-11-30T03:02:27;23.13;;;13.55;;
3257;SDS011;1641;51.306;12.384;2022-11-30T03:04:53;26.85;;;14.30;;
3257;SDS011;1641;51.306;12.384;2022-11-30T03:07:18;21.25;;;13.82;;
3257;SDS011;1641;51.306;12.384;2022-11-30T03:09:43;23.60;;;13.40;;
3257;SDS011;1641;51.306;12.384;2022-11-30T03:12:08;26.77;;;14.73;;
3257;SDS011;1641;51.306;12.384;2022-11-30T03:14:34;24.05;;;14.68;;
3257;SDS011;1641;51.306;12.384;2022-11-30T03:16:59;23.50;;;13.98;;
3257;SDS011;1641;51.306;12.384;2022-11-30T03:19:25;21.70;;;12.23;;
3257;SDS011;1641;51.306;12.384;2022-11-30T03:21:50;23.60;;;13.82;;
3257;SDS011;1641;51.306;12.384;2022-11-30T03:24:16;22.23;;;13.90;;
3257;SDS011;1641;51.306;12.384;2022-11-30T03:26:41;27.05;;;14.95;;
3257;SDS011;1641;51.306;12.384;2022-11-30T03:29:06;22.83;;;13.75;;
3257;SDS011;1641;51.306;12.384;2022-11-30T03:31:32;21.35;;;13.07;;
3257;SDS011;1641;51.306;12.384;2022-11-30T03:33:57;22.38;;;14.48;;
3257;SDS011;1641;51.306;12.384;2022-11-30T03:36:22;24.13;;;14.65;;
3257;SDS011;1641;51.306;12.384;2022-11-30T03:38:47;22.05;;;13.60;;
3257;SDS011;1641;51.306;12.384;2022-11-30T03:41:14;26.27;;;15.18;;
3257;SDS011;1641;51.306;12.384;2022-11-30T03:43:41;21.42;;;12.55;;
3257;SDS011;1641;51.306;12.384;2022-11-30T03:46:07;20.75;;;14.00;;
3257;SDS011;1641;51.306;12.384;2022-11-30T03:48:32;22.38;;;13.88;;
3257;SDS011;1641;51.306;12.384;2022-11-30T03:51:00;23.98;;;14.05;;
3257;SDS011;1641;51.306;12.384;2022-11-30T03:53:25;24.58;;;12.68;;
3257;SDS011;1641;51.306;12.384;2022-11-30T03:55:52;19.55;;;11.82;;
3257;SDS011;1641;51.306;12.384;2022-11-30T03:58:19;19.13;;;13.05;;
3257;SDS011;1641;51.306;12.384;2022-11-30T04:00:44;20.15;;;13.55;;
3257;SDS011;1641;51.306;12.384;2022-11-30T04:03:09;24.25;;;12.85;;
3257;SDS011;1641;51.306;12.384;2022-11-30T04:05:35;22.10;;;13.63;;
3257;SDS011;1641;51.306;12.384;2022-11-30T04:08:00;23.52;;;13.13;;
3257;SDS011;1641;51.306;12.384;2022-11-30T04:10:26;20.48;;;12.85;;
3257;SDS011;1641;51.306;12.384;2022-11-30T04:12:51;24.30;;;15.60;;
3257;SDS011;1641;51.306;12.384;2022-11-30T04:15:16;25.45;;;15.02;;
3257;SDS011;1641;51.306;12.384;2022-11-30T04:17:42;21.70;;;14.23;;
3257;SDS011;1641;51.306;12.384;2022-11-30T04:20:07;22.95;;;14.50;;
3257;SDS011;1641;51.306;12.384;2022-11-30T04:22:32;30.00;;;14.52;;
3257;SDS011;1641;51.306;12.384;2022-11-30T04:24:58;22.33;;;14.35;;
3257;SDS011;1641;51.306;12.384;2022-11-30T04:27:23;31.13;;;15.80;;
3257;SDS011;1641;51.306;12.384;2022-11-30T04:29:49;24.85;;;14.20;;
3257;SDS011;1641;51.306;12.384;2022-11-30T04:32:14;23.92;;;14.70;;
3257;SDS011;1641;51.306;12.384;2022-11-30T04:34:39;25.00;;;13.98;;
3257;SDS011;1641;51.306;12.384;2022-11-30T04:37:05;22.02;;;12.98;;
3257;SDS011;1641;51.306;12.384;2022-11-30T04:39:31;24.00;;;14.48;;
3257;SDS011;1641;51.306;12.384;2022-11-30T04:41:58;23.52;;;13.50;;
3257;SDS011;1641;51.306;12.384;2022-11-30T04:44:23;23.05;;;14.70;;
3257;SDS011;1641;51.306;12.384;2022-11-30T04:46:48;34.42;;;20.30;;
3257;SDS011;1641;51.306;12.384;2022-11-30T04:49:14;30.08;;;18.58;;
3257;SDS011;1641;51.306;12.384;2022-11-30T04:51:39;23.42;;;14.82;;
3257;SDS011;1641;51.306;12.384;2022-11-30T04:54:04;27.88;;;14.70;;
3257;SDS011;1641;51.306;12.384;2022-11-30T04:56:29;25.75;;;13.60;;
3257;SDS011;1641;51.306;12.384;2022-11-30T04:58:55;24.65;;;14.18;;
3257;SDS011;1641;51.306;12.384;2022-11-30T05:01:20;23.10;;;14.23;;
3257;SDS011;1641;51.306;12.384;2022-11-30T05:03:45;22.38;;;14.43;;
3257;SDS011;1641;51.306;12.384;2022-11-30T05:06:10;23.80;;;13.88;;
3257;SDS011;1641;51.306;12.384;2022-11-30T05:08:36;25.67;;;14.02;;
3257;SDS011;1641;51.306;12.384;2022-11-30T05:11:01;25.92;;;14.82;;
3257;SDS011;1641;51.306;12.384;2022-11-30T05:13:27;26.63;;;15.00;;
3257;SDS011;1641;51.306;12.384;2022-11-30T05:15:52;25.00;;;13.70;;
3257;SDS011;1641;51.306;12.384;2022-11-30T05:18:18;23.92;;;14.40;;
3257;SDS011;1641;51.306;12.384;2022-11-30T05:20:47;24.38;;;14.10;;
3257;SDS011;1641;51.306;12.384;2022-11-30T05:23:14;24.13;;;13.95;;
3257;SDS011;1641;51.306;12.384;2022-11-30T05:25:40;24.60;;;14.75;;
3257;SDS011;1641;51.306;12.384;2022-11-30T05:28:06;29.35;;;14.80;;
3257;SDS011;1641;51.306;12.384;2022-11-30T05:30:31;27.70;;;14.35;;
3257;SDS011;1641;51.306;12.384;2022-11-30T05:32:56;25.63;;;14.32;;
3257;SDS011;1641;51.306;12.384;2022-11-30T05:35:24;26.20;;;14.55;;
3257;SDS011;1641;51.306;12.384;2022-11-30T05:37:50;28.05;;;15.98;;
3257;SDS011;1641;51.306;12.384;2022-11-30T05:40:15;24.52;;;14.27;;
3257;SDS011;1641;51.306;12.384;2022-11-30T05:42:44;28.55;;;14.45;;
3257;SDS011;1641;51.306;12.384;2022-11-30T05:45:09;25.02;;;14.07;;
3257;SDS011;1641;51.306;12.384;2022-11-30T05:47:35;25.30;;;14.75;;
3257;SDS011;1641;51.306;12.384;2022-11-30T05:50:04;26.30;;;14.80;;
3257;SDS011;1641;51.306;12.384;2022-11-30T05:52:30;22.73;;;15.02;;
3257;SDS011;1641;51.306;12.384;2022-11-30T05:54:55;29.30;;;14.65;;
3257;SDS011;1641;51.306;12.384;2022-11-30T05:57:23;23.52;;;14.65;;
3257;SDS011;1641;51.306;12.384;2022-11-30T05:59:49;24.13;;;15.05;;
3257;SDS011;1641;51.306;12.384;2022-11-30T06:02:14;26.50;;;15.68;;
3257;SDS011;1641;51.306;12.384;2022-11-30T06:04:39;24.25;;;14.45;;
3257;SDS011;1641;51.306;12.384;2022-11-30T06:07:04;26.30;;;14.85;;
3257;SDS011;1641;51.306;12.384;2022-11-30T06:09:30;24.42;;;15.32;;
3257;SDS011;1641;51.306;12.384;2022-11-30T06:11:55;27.08;;;14.75;;
3257;SDS011;1641;51.306;12.384;2022-11-30T06:14:20;25.63;;;14.48;;
3257;SDS011;1641;51.306;12.384;2022-11-30T06:16:45;26.15;;;15.65;;
3257;SDS011;1641;51.306;12.384;2022-11-30T06:19:11;21.65;;;14.60;;
3257;SDS011;1641;51.306;12.384;2022-11-30T06:21:36;26.35;;;15.35;;
3257;SDS011;1641;51.306;12.384;2022-11-30T06:24:01;39.70;;;16.15;;
3257;SDS011;1641;51.306;12.384;2022-11-30T06:26:27;25.50;;;14.88;;
3257;SDS011;1641;51.306;12.384;2022-11-30T06:28:55;24.90;;;14.35;;
3257;SDS011;1641;51.306;12.384;2022-11-30T06:31:20;25.35;;;15.65;;
3257;SDS011;1641;51.306;12.384;2022-11-30T06:33:46;27.17;;;15.30;;
3257;SDS011;1641;51.306;12.384;2022-11-30T06:36:11;26.70;;;15.40;;
3257;SDS011;1641;51.306;12.384;2022-11-30T06:38:36;24.15;;;14.63;;
3257;SDS011;1641;51.306;12.384;2022-11-30T06:41:02;28.90;;;15.63;;
3257;SDS011;1641;51.306;12.384;2022-11-30T06:43:35;28.00;;;15.90;;
3257;SDS011;1641;51.306;12.384;2022-11-30T06:46:02;30.25;;;14.57;;
3257;SDS011;1641;51.306;12.384;2022-11-30T06:48:28;28.98;;;15.73;;
3257;SDS011;1641;51.306;12.384;2022-11-30T06:50:54;33.38;;;17.10;;
3257;SDS011;1641;51.306;12.384;2022-11-30T06:53:19;31.15;;;16.02;;
3257;SDS011;1641;51.306;12.384;2022-11-30T06:55:44;31.92;;;16.65;;
3257;SDS011;1641;51.306;12.384;2022-11-30T06:58:10;34.08;;;18.63;;
3257;SDS011;1641;51.306;12.384;2022-11-30T07:00:36;35.03;;;17.92;;
3257;SDS011;1641;51.306;12.384;2022-11-30T07:03:02;33.80;;;18.25;;
3257;SDS011;1641;51.306;12.384;2022-11-30T07:05:29;35.63;;;19.33;;
3257;SDS011;1641;51.306;12.384;2022-11-30T07:07:56;40.40;;;20.25;;
3257;SDS011;1641;51.306;12.384;2022-11-30T07:10:21;37.50;;;19.33;;
3257;SDS011;1641;51.306;12.384;2022-11-30T07:12:50;34.47;;;18.20;;
3257;SDS011;1641;51.306;12.384;2022-11-30T07:15:18;36.33;;;18.13;;
3257;SDS011;1641;51.306;12.384;2022-11-30T07:17:43;39.08;;;19.25;;
3257;SDS011;1641;51.306;12.384;2022-11-30T07:20:09;38.30;;;21.08;;
3257;SDS011;1641;51.306;12.384;2022-11-30T07:22:37;40.20;;;21.35;;
3257;SDS011;1641;51.306;12.384;2022-11-30T07:25:02;42.65;;;22.25;;
3257;SDS011;1641;51.306;12.384;2022-11-30T07:27:46;44.63;;;20.05;;
3257;SDS011;1641;51.306;12.384;2022-11-30T07:30:14;46.25;;;21.50;;
3257;SDS011;1641;51.306;12.384;2022-11-30T07:32:40;39.13;;;21.33;;
3257;SDS011;1641;51.306;12.384;2022-11-30T07:35:05;45.28;;;23.08;;
3257;SDS011;1641;51.306;12.384;2022-11-30T07:37:31;60.47;;;29.67;;
3257;SDS011;1641;51.306;12.384;2022-11-30T07:39:59;73.82;;;36.88;;
3257;SDS011;1641;51.306;12.384;2022-11-30T07:42:24;45.15;;;23.88;;
3257;SDS011;1641;51.306;12.384;2022-11-30T07:44:50;52.20;;;23.70;;
3257;SDS011;1641;51.306;12.384;2022-11-30T07:47:18;51.40;;;25.38;;
3257;SDS011;1641;51.306;12.384;2022-11-30T07:49:44;45.15;;;22.58;;
3257;SDS011;1641;51.306;12.384;2022-11-30T07:52:09;103.85;;;46.35;;
3257;SDS011;1641;51.306;12.384;2022-11-30T07:54:34;76.97;;;39.75;;
3257;SDS011;1641;51.306;12.384;2022-11-30T07:57:00;50.45;;;24.83;;
3257;SDS011;1641;51.306;12.384;2022-11-30T07:59:25;214.13;;;104.78;;
3257;SDS011;1641;51.306;12.384;2022-11-30T08:01:50;58.10;;;26.88;;
3257;SDS011;1641;51.306;12.384;2022-11-30T08:04:15;87.10;;;38.55;;
3257;SDS011;1641;51.306;12.384;2022-11-30T08:06:41;66.78;;;34.30;;
3257;SDS011;1641;51.306;12.384;2022-11-30T08:09:06;111.47;;;50.47;;
3257;SDS011;1641;51.306;12.384;2022-11-30T08:11:32;56.42;;;25.90;;
3257;SDS011;1641;51.306;12.384;2022-11-30T08:13:58;50.28;;;23.48;;
3257;SDS011;1641;51.306;12.384;2022-11-30T08:16:25;52.83;;;25.80;;
3257;SDS011;1641;51.306;12.384;2022-11-30T08:18:53;49.60;;;23.92;;
3257;SDS011;1641;51.306;12.384;2022-11-30T08:21:19;64.35;;;31.08;;
3257;SDS011;1641;51.306;12.384;2022-11-30T08:23:49;53.20;;;27.42;;
3257;SDS011;1641;51.306;12.384;2022-11-30T08:26:20;52.47;;;26.73;;
3257;SDS011;1641;51.306;12.384;2022-11-30T08:28:49;73.70;;;35.38;;
3257;SDS011;1641;51.306;12.384;2022-11-30T08:31:18;46.72;;;23.67;;
3257;SDS011;1641;51.306;12.384;2022-11-30T08:33:48;70.90;;;32.53;;
3257;SDS011;1641;51.306;12.384;2022-11-30T08:36:15;47.70;;;23.02;;
3257;SDS011;1641;51.306;12.384;2022-11-30T08:38:45;44.10;;;22.55;;
3257;SDS011;1641;51.306;12.384;2022-11-30T08:41:11;53.30;;;24.15;;
3257;SDS011;1641;51.306;12.384;2022-11-30T08:43:40;49.55;;;25.40;;
3257;SDS011;1641;51.306;12.384;2022-11-30T08:46:06;45.67;;;23.25;;
3257;SDS011;1641;51.306;12.384;2022-11-30T08:48:37;49.42;;;21.73;;
3257;SDS011;1641;51.306;12.384;2022-11-30T08:51:03;44.90;;;23.10;;
3257;SDS011;1641;51.306;12.384;2022-11-30T08:53:31;51.55;;;23.05;;
3257;SDS011;1641;51.306;12.384;2022-11-30T08:55:58;47.30;;;23.20;;
3257;SDS011;1641;51.306;12.384;2022-11-30T08:58:35;42.55;;;22.95;;
3257;SDS011;1641;51.306;12.384;2022-11-30T09:01:16;50.95;;;26.73;;
3257;SDS011;1641;51.306;12.384;2022-11-30T09:03:46;47.25;;;22.73;;
3257;SDS011;1641;51.306;12.384;2022-11-30T09:06:12;55.40;;;23.65;;
3257;SDS011;1641;51.306;12.384;2022-11-30T09:08:40;47.53;;;24.88;;
3257;SDS011;1641;51.306;12.384;2022-11-30T09:11:27;59.78;;;25.73;;
3257;SDS011;1641;51.306;12.384;2022-11-30T09:13:55;53.40;;;25.90;;
3257;SDS011;1641;51.306;12.384;2022-11-30T09:16:23;55.38;;;27.02;;
3257;SDS011;1641;51.306;12.384;2022-11-30T09:18:49;50.35;;;26.15;;
3257;SDS011;1641;51.306;12.384;2022-11-30T09:21:16;47.10;;;23.38;;
3257;SDS011;1641;51.306;12.384;2022-11-30T09:23:43;52.55;;;25.00;;
3257;SDS011;1641;51.306;12.384;2022-11-30T09:26:10;48.17;;;23.33;;
3257;SDS011;1641;51.306;12.384;2022-11-30T09:28:37;48.58;;;24.15;;
3257;SDS011;1641;51.306;12.384;2022-11-30T09:31:04;51.83;;;24.10;;
3257;SDS011;1641;51.306;12.384;2022-11-30T09:33:30;55.13;;;25.25;;
3257;SDS011;1641;51.306;12.384;2022-11-30T09:35:57;51.95;;;25.23;;
3257;SDS011;1641;51.306;12.384;2022-11-30T09:38:23;53.78;;;22.38;;
3257;SDS011;1641;51.306;12.384;2022-11-30T09:40:55;54.40;;;24.23;;
3257;SDS011;1641;51.306;12.384;2022-11-30T09:45:52;54.42;;;24.88;;
3257;SDS011;1641;51.306;12.384;2022-11-30T09:51:24;51.78;;;23.42;;
3257;SDS011;1641;51.306;12.384;2022-11-30T09:53:58;48.25;;;23.98;;
3257;SDS011;1641;51.306;12.384;2022-11-30T09:56:37;52.72;;;26.02;;
3257;SDS011;1641;51.306;12.384;2022-11-30T10:01:42;47.45;;;24.85;;
3257;SDS011;1641;51.306;12.384;2022-11-30T10:04:13;52.17;;;25.63;;
3257;SDS011;1641;51.306;12.384;2022-11-30T10:06:49;60.92;;;25.25;;
3257;SDS011;1641;51.306;12.384;2022-11-30T10:12:27;45.58;;;22.00;;
3257;SDS011;1641;51.306;12.384;2022-11-30T10:17:54;49.17;;;23.50;;
3257;SDS011;1641;51.306;12.384;2022-11-30T10:20:27;49.78;;;23.55;;
3257;SDS011;1641;51.306;12.384;2022-11-30T10:25:46;47.13;;;22.42;;
3257;SDS011;1641;51.306;12.384;2022-11-30T10:31:00;46.80;;;22.95;;
3257;SDS011;1641;51.306;12.384;2022-11-30T10:33:28;47.95;;;22.95;;
3257;SDS011;1641;51.306;12.384;2022-11-30T10:35:59;41.58;;;21.85;;
3257;SDS011;1641;51.306;12.384;2022-11-30T10:38:32;50.78;;;22.92;;
3257;SDS011;1641;51.306;12.384;2022-11-30T10:41:07;51.05;;;24.85;;
3257;SDS011;1641;51.306;12.384;2022-11-30T10:43:57;48.80;;;21.63;;
3257;SDS011;1641;51.306;12.384;2022-11-30T10:46:35;45.20;;;23.65;;
3257;SDS011;1641;51.306;12.384;2022-11-30T10:49:06;46.15;;;24.08;;
3257;SDS011;1641;51.306;12.384;2022-11-30T10:51:37;43.78;;;22.73;;
3257;SDS011;1641;51.306;12.384;2022-11-30T10:54:12;46.05;;;22.30;;
3257;SDS011;1641;51.306;12.384;2022-11-30T10:56:40;44.92;;;22.73;;
3257;SDS011;1641;51.306;12.384;2022-11-30T10:59:08;50.22;;;23.25;;
3257;SDS011;1641;51.306;12.384;2022-11-30T11:01:40;45.30;;;22.60;;
3257;SDS011;1641;51.306;12.384;2022-11-30T11:06:39;45.20;;;21.70;;
3257;SDS011;1641;51.306;12.384;2022-11-30T11:09:38;45.72;;;22.40;;
3257;SDS011;1641;51.306;12.384;2022-11-30T11:12:05;44.30;;;22.35;;
3257;SDS011;1641;51.306;12.384;2022-11-30T11:14:40;42.00;;;20.33;;
3257;SDS011;1641;51.306;12.384;2022-11-30T11:17:18;48.70;;;21.23;;
3257;SDS011;1641;51.306;12.384;2022-11-30T11:19:48;40.05;;;20.40;;
3257;SDS011;1641;51.306;12.384;2022-11-30T11:24:44;47.95;;;22.02;;
3257;SDS011;1641;51.306;12.384;2022-11-30T11:27:18;41.30;;;22.00;;
3257;SDS011;1641;51.306;12.384;2022-11-30T11:29:55;37.35;;;20.80;;
3257;SDS011;1641;51.306;12.384;2022-11-30T11:32:24;39.08;;;20.95;;
3257;SDS011;1641;51.306;12.384;2022-11-30T11:34:50;43.88;;;22.98;;
3257;SDS011;1641;51.306;12.384;2022-11-30T11:42:23;42.25;;;20.17;;
3257;SDS011;1641;51.306;12.384;2022-11-30T11:44:51;43.08;;;19.65;;
3257;SDS011;1641;51.306;12.384;2022-11-30T11:52:47;40.22;;;18.20;;
3257;SDS011;1641;51.306;12.384;2022-11-30T11:55:17;41.75;;;21.05;;
3257;SDS011;1641;51.306;12.384;2022-11-30T11:57:55;40.97;;;20.33;;
3257;SDS011;1641;51.306;12.384;2022-11-30T12:00:23;41.92;;;19.05;;
3257;SDS011;1641;51.306;12.384;2022-11-30T12:02:52;46.17;;;25.50;;
3257;SDS011;1641;51.306;12.384;2022-11-30T12:05:28;43.38;;;20.95;;
3257;SDS011;1641;51.306;12.384;2022-11-30T12:07:58;39.88;;;20.88;;
3257;SDS011;1641;51.306;12.384;2022-11-30T12:10:45;41.05;;;20.25;;
3257;SDS011;1641;51.306;12.384;2022-11-30T12:13:17;43.72;;;21.05;;
3257;SDS011;1641;51.306;12.384;2022-11-30T12:15:56;34.22;;;18.30;;
3257;SDS011;1641;51.306;12.384;2022-11-30T12:18:29;38.87;;;20.13;;
3257;SDS011;1641;51.306;12.384;2022-11-30T12:21:56;43.70;;;19.42;;
3257;SDS011;1641;51.306;12.384;2022-11-30T12:27:13;42.28;;;19.65;;
3257;SDS011;1641;51.306;12.384;2022-11-30T12:38:17;43.30;;;22.00;;
3257;SDS011;1641;51.306;12.384;2022-11-30T12:41:06;41.03;;;19.77;;
3257;SDS011;1641;51.306;12.384;2022-11-30T12:54:42;39.05;;;20.55;;
3257;SDS011;1641;51.306;12.384;2022-11-30T12:57:20;56.85;;;32.05;;
3257;SDS011;1641;51.306;12.384;2022-11-30T13:00:39;33.78;;;18.00;;
3257;SDS011;1641;51.306;12.384;2022-11-30T13:05:41;52.65;;;30.27;;
3257;SDS011;1641;51.306;12.384;2022-11-30T13:08:21;40.10;;;23.40;;
3257;SDS011;1641;51.306;12.384;2022-11-30T13:11:02;29.13;;;16.42;;
3257;SDS011;1641;51.306;12.384;2022-11-30T13:13:35;42.65;;;22.83;;
3257;SDS011;1641;51.306;12.384;2022-11-30T13:16:02;36.80;;;22.35;;
3257;SDS011;1641;51.306;12.384;2022-11-30T13:18:29;31.75;;;17.40;;
3257;SDS011;1641;51.306;12.384;2022-11-30T13:23:26;33.83;;;18.38;;
3257;SDS011;1641;51.306;12.384;2022-11-30T13:29:04;29.08;;;15.82;;
3257;SDS011;1641;51.306;12.384;2022-11-30T13:31:47;28.15;;;14.82;;
3257;SDS011;1641;51.306;12.384;2022-11-30T13:34:24;34.42;;;17.30;;
3257;SDS011;1641;51.306;12.384;2022-11-30T13:36:59;32.00;;;16.10;;
3257;SDS011;1641;51.306;12.384;2022-11-30T13:39:27;38.63;;;19.45;;
3257;SDS011;1641;51.306;12.384;2022-11-30T13:46:59;33.97;;;17.35;;
3257;SDS011;1641;51.306;12.384;2022-11-30T13:49:30;36.90;;;19.60;;
3257;SDS011;1641;51.306;12.384;2022-11-30T13:51:58;38.53;;;20.23;;
3257;SDS011;1641;51.306;12.384;2022-11-30T13:54:40;35.50;;;14.85;;
3257;SDS011;1641;51.306;12.384;2022-11-30T13:59:49;40.80;;;21.58;;
3257;SDS011;1641;51.306;12.384;2022-11-30T14:07:42;39.42;;;19.48;;
3257;SDS011;1641;51.306;12.384;2022-11-30T14:13:03;34.38;;;19.63;;
3257;SDS011;1641;51.306;12.384;2022-11-30T14:21:36;35.50;;;19.30;;
3257;SDS011;1641;51.306;12.384;2022-11-30T14:26:21;24.70;;;15.77;;
3257;SDS011;1641;51.306;12.384;2022-11-30T14:34:18;33.17;;;20.08;;
3257;SDS011;1641;51.306;12.384;2022-11-30T14:36:52;34.80;;;20.10;;
3257;SDS011;1641;51.306;12.384;2022-11-30T14:39:35;36.42;;;21.15;;
3257;SDS011;1641;51.306;12.384;2022-11-30T14:42:14;37.92;;;21.38;;
3257;SDS011;1641;51.306;12.384;2022-11-30T14:44:52;38.15;;;20.40;;
3257;SDS011;1641;51.306;12.384;2022-11-30T14:47:28;36.75;;;20.77;;
3257;SDS011;1641;51.306;12.384;2022-11-30T14:50:11;38.65;;;21.88;;
3257;SDS011;1641;51.306;12.384;2022-11-30T14:52:59;38.85;;;21.23;;
3257;SDS011;1641;51.306;12.384;2022-11-30T14:55:37;39.08;;;22.30;;
3257;SDS011;1641;51.306;12.384;2022-11-30T15:01:00;37.05;;;21.17;;
3257;SDS011;1641;51.306;12.384;2022-11-30T15:03:29;34.97;;;19.88;;
3257;SDS011;1641;51.306;12.384;2022-11-30T15:05:58;42.70;;;22.13;;
3257;SDS011;1641;51.306;12.384;2022-11-30T15:08:33;37.78;;;20.65;;
3257;SDS011;1641;51.306;12.384;2022-11-30T15:11:04;39.72;;;22.38;;
3257;SDS011;1641;51.306;12.384;2022-11-30T15:13:33;36.88;;;21.38;;
3257;SDS011;1641;51.306;12.384;2022-11-30T15:16:07;38.22;;;22.25;;
3257;SDS011;1641;51.306;12.384;2022-11-30T15:18:34;41.83;;;23.05;;
3257;SDS011;1641;51.306;12.384;2022-11-30T15:21:06;40.28;;;22.25;;
3257;SDS011;1641;51.306;12.384;2022-11-30T15:23:53;36.42;;;21.90;;
3257;SDS011;1641;51.306;12.384;2022-11-30T15:26:20;36.85;;;20.52;;
3257;SDS011;1641;51.306;12.384;2022-11-30T15:29:01;37.45;;;21.02;;
3257;SDS011;1641;51.306;12.384;2022-11-30T15:31:37;39.28;;;22.58;;
3257;SDS011;1641;51.306;12.384;2022-11-30T15:34:05;36.08;;;20.88;;
3257;SDS011;1641;51.306;12.384;2022-11-30T15:36:34;41.67;;;22.63;;
3257;SDS011;1641;51.306;12.384;2022-11-30T15:39:02;40.95;;;20.65;;
3257;SDS011;1641;51.306;12.384;2022-11-30T15:41:30;41.33;;;20.92;;
3257;SDS011;1641;51.306;12.384;2022-11-30T15:43:57;40.28;;;22.80;;
3257;SDS011;1641;51.306;12.384;2022-11-30T15:46:29;38.75;;;21.40;;
3257;SDS011;1641;51.306;12.384;2022-11-30T15:49:12;38.03;;;21.27;;
3257;SDS011;1641;51.306;12.384;2022-11-30T15:51:42;36.58;;;20.25;;
3257;SDS011;1641;51.306;12.384;2022-11-30T15:54:14;37.20;;;20.35;;
3257;SDS011;1641;51.306;12.384;2022-11-30T15:56:40;44.17;;;22.80;;
3257;SDS011;1641;51.306;12.384;2022-11-30T15:59:24;38.80;;;23.48;;
3257;SDS011;1641;51.306;12.384;2022-11-30T16:01:58;48.67;;;23.23;;
3257;SDS011;1641;51.306;12.384;2022-11-30T16:07:23;38.85;;;21.17;;
3257;SDS011;1641;51.306;12.384;2022-11-30T16:09:51;37.60;;;20.98;;
3257;SDS011;1641;51.306;12.384;2022-11-30T16:12:26;40.85;;;22.63;;
3257;SDS011;1641;51.306;12.384;2022-11-30T16:14:53;38.45;;;21.42;;
3257;SDS011;1641;51.306;12.384;2022-11-30T16:17:19;44.65;;;22.92;;
3257;SDS011;1641;51.306;12.384;2022-11-30T16:19:44;41.63;;;22.15;;
3257;SDS011;1641;51.306;12.384;2022-11-30T16:22:13;45.83;;;24.45;;
3257;SDS011;1641;51.306;12.384;2022-11-30T16:24:39;43.00;;;22.45;;
3257;SDS011;1641;51.306;12.384;2022-11-30T16:27:15;42.15;;;21.38;;
3257;SDS011;1641;51.306;12.384;2022-11-30T16:29:42;41.60;;;20.90;;
3257;SDS011;1641;51.306;12.384;2022-11-30T16:32:11;40.00;;;22.17;;
3257;SDS011;1641;51.306;12.384;2022-11-30T16:34:38;38.78;;;20.80;;
3257;SDS011;1641;51.306;12.384;2022-11-30T16:37:05;43.10;;;23.35;;
3257;SDS011;1641;51.306;12.384;2022-11-30T16:39:34;38.38;;;22.15;;
3257;SDS011;1641;51.306;12.384;2022-11-30T16:41:59;42.08;;;21.70;;